CheckWX is a tool to help pilots better visualize weather data.  It is not intended as a substitute for an official pre-flight weather briefing.

12:17:54 UTC

DTTR METAR
El Borma Airport
El Borma, Tunisia
Current

18 mins ago

DTTR 251200Z 18004KT 110V230 CAVOK 23/03 Q1021 NOSIG
Observed
Mar-25 @ 12:00 UTC
Wind
  • 180° at 4 KTS
Visibility
10,000+ meters
Flight Rules
VFR
Cloud Levels
  • Clear skies
Temperature
23°C / 73°F
Dewpoint
C / 37°F
Humidity
27%
Altimeter
30.15" Hg
Pressure
1020.92 hPa
Previous

1 hour ago

DTTR 251100Z 15004KT CAVOK 22/04 Q1022 NOSIG
Observed
Mar-25 @ 11:00 UTC
Wind
  • 150° at 4 KTS
Visibility
10,000+ meters
Flight Rules
VFR
Cloud Levels
  • Clear skies
Temperature
22°C / 72°F
Dewpoint
C / 39°F
Humidity
31%
Altimeter
30.18" Hg
Pressure
1021.92 hPa
Previous

2 hours ago

DTTR 251000Z 12006KT CAVOK 20/04 Q1022 NOSIG
Observed
Mar-25 @ 10:00 UTC
Wind
  • 120° at 6 KTS
Visibility
10,000+ meters
Flight Rules
VFR
Cloud Levels
  • Clear skies
Temperature
20°C / 68°F
Dewpoint
C / 39°F
Humidity
35%
Altimeter
30.18" Hg
Pressure
1021.92 hPa